sensor_id;sensor_type;location;lat;lon;timestamp;P1;durP1;ratioP1;P2;durP2;ratioP2
19944;SDS011;10134;50.952;6.930;2023-05-10T00:02:07;6.50;;;4.78;;
19944;SDS011;10134;50.952;6.930;2023-05-10T00:04:35;6.97;;;4.65;;
19944;SDS011;10134;50.952;6.930;2023-05-10T00:07:02;6.38;;;4.63;;
19944;SDS011;10134;50.952;6.930;2023-05-10T00:09:29;6.72;;;4.85;;
19944;SDS011;10134;50.952;6.930;2023-05-10T00:11:57;7.63;;;5.18;;
19944;SDS011;10134;50.952;6.930;2023-05-10T00:14:25;6.53;;;5.53;;
19944;SDS011;10134;50.952;6.930;2023-05-10T00:16:52;7.65;;;5.65;;
19944;SDS011;10134;50.952;6.930;2023-05-10T00:19:20;6.43;;;5.18;;
19944;SDS011;10134;50.952;6.930;2023-05-10T00:21:47;8.35;;;5.88;;
19944;SDS011;10134;50.952;6.930;2023-05-10T00:24:14;8.90;;;6.40;;
19944;SDS011;10134;50.952;6.930;2023-05-10T00:26:41;10.02;;;5.57;;
19944;SDS011;10134;50.952;6.930;2023-05-10T00:29:09;11.68;;;6.75;;
19944;SDS011;10134;50.952;6.930;2023-05-10T00:31:36;10.43;;;7.03;;
19944;SDS011;10134;50.952;6.930;2023-05-10T00:34:03;8.35;;;6.70;;
19944;SDS011;10134;50.952;6.930;2023-05-10T00:36:31;8.13;;;5.88;;
19944;SDS011;10134;50.952;6.930;2023-05-10T00:38:58;9.63;;;6.45;;
19944;SDS011;10134;50.952;6.930;2023-05-10T00:41:26;10.25;;;6.93;;
19944;SDS011;10134;50.952;6.930;2023-05-10T00:43:54;11.18;;;6.75;;
19944;SDS011;10134;50.952;6.930;2023-05-10T00:46:22;10.55;;;6.05;;
19944;SDS011;10134;50.952;6.930;2023-05-10T00:48:51;10.30;;;7.45;;
19944;SDS011;10134;50.952;6.930;2023-05-10T00:51:19;8.73;;;6.30;;
19944;SDS011;10134;50.952;6.930;2023-05-10T00:53:46;9.80;;;7.05;;
19944;SDS011;10134;50.952;6.930;2023-05-10T00:56:15;9.95;;;7.20;;
19944;SDS011;10134;50.952;6.930;2023-05-10T00:58:43;10.77;;;7.20;;
19944;SDS011;10134;50.952;6.930;2023-05-10T01:01:10;8.75;;;6.68;;
19944;SDS011;10134;50.952;6.930;2023-05-10T01:03:38;11.18;;;7.85;;
19944;SDS011;10134;50.952;6.930;2023-05-10T01:06:06;10.93;;;7.45;;
19944;SDS011;10134;50.952;6.930;2023-05-10T01:08:34;11.95;;;7.68;;
19944;SDS011;10134;50.952;6.930;2023-05-10T01:11:01;9.38;;;6.53;;
19944;SDS011;10134;50.952;6.930;2023-05-10T01:13:30;9.35;;;7.13;;
19944;SDS011;10134;50.952;6.930;2023-05-10T01:16:08;11.82;;;6.93;;
19944;SDS011;10134;50.952;6.930;2023-05-10T01:18:39;10.00;;;7.07;;
19944;SDS011;10134;50.952;6.930;2023-05-10T01:21:14;11.13;;;6.97;;
19944;SDS011;10134;50.952;6.930;2023-05-10T01:24:02;10.27;;;6.97;;
19944;SDS011;10134;50.952;6.930;2023-05-10T01:43:37;11.07;;;7.43;;
19944;SDS011;10134;50.952;6.930;2023-05-10T01:46:16;13.52;;;7.53;;
19944;SDS011;10134;50.952;6.930;2023-05-10T01:48:51;14.57;;;8.38;;
19944;SDS011;10134;50.952;6.930;2023-05-10T01:51:24;10.27;;;7.30;;
19944;SDS011;10134;50.952;6.930;2023-05-10T01:53:58;11.93;;;7.97;;
19944;SDS011;10134;50.952;6.930;2023-05-10T01:56:29;8.93;;;6.30;;
19944;SDS011;10134;50.952;6.930;2023-05-10T01:58:59;10.63;;;6.82;;
19944;SDS011;10134;50.952;6.930;2023-05-10T02:01:30;14.07;;;7.82;;
19944;SDS011;10134;50.952;6.930;2023-05-10T02:03:58;9.45;;;6.28;;
19944;SDS011;10134;50.952;6.930;2023-05-10T02:06:26;9.98;;;6.78;;
19944;SDS011;10134;50.952;6.930;2023-05-10T02:08:54;10.88;;;7.55;;
19944;SDS011;10134;50.952;6.930;2023-05-10T02:11:23;9.85;;;6.68;;
19944;SDS011;10134;50.952;6.930;2023-05-10T02:13:52;10.77;;;7.20;;
19944;SDS011;10134;50.952;6.930;2023-05-10T02:16:27;10.13;;;6.20;;
19944;SDS011;10134;50.952;6.930;2023-05-10T02:18:59;9.88;;;6.93;;
19944;SDS011;10134;50.952;6.930;2023-05-10T02:21:28;10.85;;;7.15;;
19944;SDS011;10134;50.952;6.930;2023-05-10T02:23:57;10.15;;;6.68;;
19944;SDS011;10134;50.952;6.930;2023-05-10T02:26:27;11.35;;;6.97;;
19944;SDS011;10134;50.952;6.930;2023-05-10T02:28:56;16.13;;;7.88;;
19944;SDS011;10134;50.952;6.930;2023-05-10T02:31:25;12.02;;;6.95;;
19944;SDS011;10134;50.952;6.930;2023-05-10T02:33:52;7.63;;;5.70;;
19944;SDS011;10134;50.952;6.930;2023-05-10T02:36:20;11.30;;;6.40;;
19944;SDS011;10134;50.952;6.930;2023-05-10T02:38:49;6.68;;;5.07;;
19944;SDS011;10134;50.952;6.930;2023-05-10T02:41:20;9.85;;;5.93;;
19944;SDS011;10134;50.952;6.930;2023-05-10T02:43:50;7.30;;;4.70;;
19944;SDS011;10134;50.952;6.930;2023-05-10T02:46:23;5.90;;;4.55;;
19944;SDS011;10134;50.952;6.930;2023-05-10T02:48:50;5.95;;;4.22;;
19944;SDS011;10134;50.952;6.930;2023-05-10T02:51:18;6.07;;;4.47;;
19944;SDS011;10134;50.952;6.930;2023-05-10T02:53:47;6.78;;;4.28;;
19944;SDS011;10134;50.952;6.930;2023-05-10T02:56:24;7.97;;;4.53;;
19944;SDS011;10134;50.952;6.930;2023-05-10T02:58:58;6.18;;;4.03;;
19944;SDS011;10134;50.952;6.930;2023-05-10T03:01:25;7.25;;;4.05;;
19944;SDS011;10134;50.952;6.930;2023-05-10T03:03:53;6.20;;;4.25;;
19944;SDS011;10134;50.952;6.930;2023-05-10T03:06:20;6.40;;;4.50;;
19944;SDS011;10134;50.952;6.930;2023-05-10T03:08:48;6.57;;;4.10;;
19944;SDS011;10134;50.952;6.930;2023-05-10T03:11:30;5.15;;;4.03;;
19944;SDS011;10134;50.952;6.930;2023-05-10T03:14:06;6.75;;;4.28;;
19944;SDS011;10134;50.952;6.930;2023-05-10T03:16:38;8.82;;;4.82;;
19944;SDS011;10134;50.952;6.930;2023-05-10T03:21:56;6.00;;;4.38;;
19944;SDS011;10134;50.952;6.930;2023-05-10T03:24:33;6.28;;;4.00;;
19944;SDS011;10134;50.952;6.930;2023-05-10T03:27:03;6.43;;;4.30;;
19944;SDS011;10134;50.952;6.930;2023-05-10T03:29:31;7.15;;;4.70;;
19944;SDS011;10134;50.952;6.930;2023-05-10T03:31:59;6.57;;;4.15;;
19944;SDS011;10134;50.952;6.930;2023-05-10T03:34:29;7.25;;;4.57;;
19944;SDS011;10134;50.952;6.930;2023-05-10T03:36:58;7.30;;;3.83;;
19944;SDS011;10134;50.952;6.930;2023-05-10T03:39:29;10.27;;;5.32;;
19944;SDS011;10134;50.952;6.930;2023-05-10T03:41:58;7.07;;;4.57;;
19944;SDS011;10134;50.952;6.930;2023-05-10T03:44:25;7.40;;;5.13;;
19944;SDS011;10134;50.952;6.930;2023-05-10T03:46:53;6.90;;;4.78;;
19944;SDS011;10134;50.952;6.930;2023-05-10T03:49:20;6.50;;;4.70;;
19944;SDS011;10134;50.952;6.930;2023-05-10T03:51:48;10.32;;;6.50;;
19944;SDS011;10134;50.952;6.930;2023-05-10T03:54:15;7.40;;;5.13;;
19944;SDS011;10134;50.952;6.930;2023-05-10T03:56:42;10.85;;;6.03;;
19944;SDS011;10134;50.952;6.930;2023-05-10T03:59:10;12.00;;;6.40;;
19944;SDS011;10134;50.952;6.930;2023-05-10T04:01:40;10.57;;;5.85;;
19944;SDS011;10134;50.952;6.930;2023-05-10T04:04:08;10.18;;;6.25;;
19944;SDS011;10134;50.952;6.930;2023-05-10T04:06:35;11.32;;;7.10;;
19944;SDS011;10134;50.952;6.930;2023-05-10T04:09:04;15.65;;;8.30;;
19944;SDS011;10134;50.952;6.930;2023-05-10T04:11:32;11.90;;;8.07;;
19944;SDS011;10134;50.952;6.930;2023-05-10T04:13:59;10.35;;;7.13;;
19944;SDS011;10134;50.952;6.930;2023-05-10T04:16:26;14.35;;;7.97;;
19944;SDS011;10134;50.952;6.930;2023-05-10T04:18:54;11.75;;;8.48;;
19944;SDS011;10134;50.952;6.930;2023-05-10T04:21:21;12.82;;;7.95;;
19944;SDS011;10134;50.952;6.930;2023-05-10T04:23:48;10.90;;;8.00;;
19944;SDS011;10134;50.952;6.930;2023-05-10T04:26:15;12.05;;;8.52;;
19944;SDS011;10134;50.952;6.930;2023-05-10T04:28:43;13.90;;;8.48;;
19944;SDS011;10134;50.952;6.930;2023-05-10T04:31:10;12.95;;;8.88;;
19944;SDS011;10134;50.952;6.930;2023-05-10T04:33:38;16.88;;;9.13;;
19944;SDS011;10134;50.952;6.930;2023-05-10T04:36:05;15.68;;;8.82;;
19944;SDS011;10134;50.952;6.930;2023-05-10T04:38:33;12.57;;;8.32;;
19944;SDS011;10134;50.952;6.930;2023-05-10T04:41:07;11.95;;;9.40;;
19944;SDS011;10134;50.952;6.930;2023-05-10T04:43:35;12.52;;;9.40;;
19944;SDS011;10134;50.952;6.930;2023-05-10T04:46:04;14.05;;;8.40;;
19944;SDS011;10134;50.952;6.930;2023-05-10T04:48:32;13.23;;;9.05;;
19944;SDS011;10134;50.952;6.930;2023-05-10T04:51:00;19.13;;;8.50;;
19944;SDS011;10134;50.952;6.930;2023-05-10T04:53:27;18.02;;;10.25;;
19944;SDS011;10134;50.952;6.930;2023-05-10T04:55:55;14.65;;;9.73;;
19944;SDS011;10134;50.952;6.930;2023-05-10T04:58:22;13.77;;;8.55;;
19944;SDS011;10134;50.952;6.930;2023-05-10T05:00:49;16.20;;;9.27;;
19944;SDS011;10134;50.952;6.930;2023-05-10T05:03:16;14.25;;;8.95;;
19944;SDS011;10134;50.952;6.930;2023-05-10T05:05:44;15.48;;;9.48;;
19944;SDS011;10134;50.952;6.930;2023-05-10T05:08:11;16.45;;;9.93;;
19944;SDS011;10134;50.952;6.930;2023-05-10T05:10:39;17.38;;;9.73;;
19944;SDS011;10134;50.952;6.930;2023-05-10T05:13:07;15.13;;;10.25;;
19944;SDS011;10134;50.952;6.930;2023-05-10T05:15:34;16.58;;;8.80;;
19944;SDS011;10134;50.952;6.930;2023-05-10T05:18:01;14.48;;;8.25;;
19944;SDS011;10134;50.952;6.930;2023-05-10T05:20:31;13.38;;;8.68;;
19944;SDS011;10134;50.952;6.930;2023-05-10T05:23:00;16.13;;;9.70;;
19944;SDS011;10134;50.952;6.930;2023-05-10T05:25:28;15.30;;;9.48;;
19944;SDS011;10134;50.952;6.930;2023-05-10T05:27:55;16.80;;;8.70;;
19944;SDS011;10134;50.952;6.930;2023-05-10T05:30:22;19.42;;;8.63;;
19944;SDS011;10134;50.952;6.930;2023-05-10T05:32:50;16.48;;;8.88;;
19944;SDS011;10134;50.952;6.930;2023-05-10T05:35:17;17.33;;;9.63;;
19944;SDS011;10134;50.952;6.930;2023-05-10T05:37:45;13.88;;;8.70;;
19944;SDS011;10134;50.952;6.930;2023-05-10T05:40:12;13.65;;;7.78;;
19944;SDS011;10134;50.952;6.930;2023-05-10T05:42:40;14.85;;;8.38;;
19944;SDS011;10134;50.952;6.930;2023-05-10T05:45:08;26.05;;;9.45;;
19944;SDS011;10134;50.952;6.930;2023-05-10T05:47:39;13.65;;;8.30;;
19944;SDS011;10134;50.952;6.930;2023-05-10T05:50:07;13.80;;;8.63;;
19944;SDS011;10134;50.952;6.930;2023-05-10T05:52:34;19.70;;;9.30;;
19944;SDS011;10134;50.952;6.930;2023-05-10T05:55:02;15.95;;;8.75;;
19944;SDS011;10134;50.952;6.930;2023-05-10T05:57:30;11.50;;;7.70;;
19944;SDS011;10134;50.952;6.930;2023-05-10T05:59:57;14.52;;;8.15;;
19944;SDS011;10134;50.952;6.930;2023-05-10T06:02:24;14.75;;;8.70;;
19944;SDS011;10134;50.952;6.930;2023-05-10T06:04:52;15.10;;;7.28;;
19944;SDS011;10134;50.952;6.930;2023-05-10T06:07:19;16.13;;;7.85;;
19944;SDS011;10134;50.952;6.930;2023-05-10T06:09:46;20.80;;;8.55;;
19944;SDS011;10134;50.952;6.930;2023-05-10T06:12:14;18.10;;;8.18;;
19944;SDS011;10134;50.952;6.930;2023-05-10T06:14:41;13.63;;;8.80;;
19944;SDS011;10134;50.952;6.930;2023-05-10T06:17:09;11.13;;;7.15;;
19944;SDS011;10134;50.952;6.930;2023-05-10T06:19:36;14.93;;;7.88;;
19944;SDS011;10134;50.952;6.930;2023-05-10T06:22:09;15.07;;;8.40;;
19944;SDS011;10134;50.952;6.930;2023-05-10T06:24:39;12.20;;;7.63;;
19944;SDS011;10134;50.952;6.930;2023-05-10T06:27:07;16.20;;;8.18;;
19944;SDS011;10134;50.952;6.930;2023-05-10T06:29:34;14.18;;;7.47;;
19944;SDS011;10134;50.952;6.930;2023-05-10T06:32:01;16.20;;;7.70;;
19944;SDS011;10134;50.952;6.930;2023-05-10T06:34:29;14.07;;;7.45;;
19944;SDS011;10134;50.952;6.930;2023-05-10T06:36:56;17.77;;;8.15;;
19944;SDS011;10134;50.952;6.930;2023-05-10T06:39:24;16.48;;;8.07;;
19944;SDS011;10134;50.952;6.930;2023-05-10T06:41:51;16.13;;;8.18;;
19944;SDS011;10134;50.952;6.930;2023-05-10T06:44:19;13.75;;;7.38;;
19944;SDS011;10134;50.952;6.930;2023-05-10T06:46:46;13.68;;;8.10;;
19944;SDS011;10134;50.952;6.930;2023-05-10T06:49:14;15.70;;;9.18;;
19944;SDS011;10134;50.952;6.930;2023-05-10T06:51:41;14.40;;;8.68;;
19944;SDS011;10134;50.952;6.930;2023-05-10T06:54:08;14.43;;;9.07;;
19944;SDS011;10134;50.952;6.930;2023-05-10T06:56:36;16.23;;;8.57;;
19944;SDS011;10134;50.952;6.930;2023-05-10T06:59:03;17.13;;;9.85;;
19944;SDS011;10134;50.952;6.930;2023-05-10T07:01:30;16.75;;;8.52;;
19944;SDS011;10134;50.952;6.930;2023-05-10T07:03:57;18.10;;;8.43;;
19944;SDS011;10134;50.952;6.930;2023-05-10T07:06:25;20.40;;;9.85;;
19944;SDS011;10134;50.952;6.930;2023-05-10T07:08:59;11.32;;;7.80;;
19944;SDS011;10134;50.952;6.930;2023-05-10T07:11:27;19.67;;;10.23;;
19944;SDS011;10134;50.952;6.930;2023-05-10T07:13:55;16.15;;;9.05;;
19944;SDS011;10134;50.952;6.930;2023-05-10T07:16:22;15.15;;;8.50;;
19944;SDS011;10134;50.952;6.930;2023-05-10T07:18:49;15.23;;;9.23;;
19944;SDS011;10134;50.952;6.930;2023-05-10T07:21:17;17.85;;;8.38;;
19944;SDS011;10134;50.952;6.930;2023-05-10T07:23:44;14.57;;;7.68;;
19944;SDS011;10134;50.952;6.930;2023-05-10T07:26:12;16.35;;;8.55;;
19944;SDS011;10134;50.952;6.930;2023-05-10T07:28:39;11.25;;;7.75;;
19944;SDS011;10134;50.952;6.930;2023-05-10T07:31:07;16.00;;;8.65;;
19944;SDS011;10134;50.952;6.930;2023-05-10T07:33:34;15.07;;;8.68;;
19944;SDS011;10134;50.952;6.930;2023-05-10T07:36:02;20.15;;;8.35;;
19944;SDS011;10134;50.952;6.930;2023-05-10T07:38:29;15.13;;;8.45;;
19944;SDS011;10134;50.952;6.930;2023-05-10T07:40:56;16.35;;;8.95;;
19944;SDS011;10134;50.952;6.930;2023-05-10T07:43:24;17.73;;;7.95;;
19944;SDS011;10134;50.952;6.930;2023-05-10T07:45:51;13.88;;;7.63;;
19944;SDS011;10134;50.952;6.930;2023-05-10T07:48:21;13.10;;;8.02;;
19944;SDS011;10134;50.952;6.930;2023-05-10T07:50:49;13.02;;;8.13;;
19944;SDS011;10134;50.952;6.930;2023-05-10T07:53:16;13.07;;;7.88;;
19944;SDS011;10134;50.952;6.930;2023-05-10T07:55:49;11.50;;;7.57;;
19944;SDS011;10134;50.952;6.930;2023-05-10T07:58:18;12.35;;;7.85;;
19944;SDS011;10134;50.952;6.930;2023-05-10T08:00:45;12.48;;;7.50;;
19944;SDS011;10134;50.952;6.930;2023-05-10T08:03:13;15.90;;;9.75;;
19944;SDS011;10134;50.952;6.930;2023-05-10T08:05:40;12.32;;;7.45;;
19944;SDS011;10134;50.952;6.930;2023-05-10T08:08:08;18.80;;;9.65;;
19944;SDS011;10134;50.952;6.930;2023-05-10T08:10:35;15.48;;;7.55;;
19944;SDS011;10134;50.952;6.930;2023-05-10T08:13:02;15.43;;;8.63;;
19944;SDS011;10134;50.952;6.930;2023-05-10T08:15:30;12.77;;;8.48;;
19944;SDS011;10134;50.952;6.930;2023-05-10T08:17:57;14.60;;;8.32;;
19944;SDS011;10134;50.952;6.930;2023-05-10T08:20:24;15.75;;;8.10;;
19944;SDS011;10134;50.952;6.930;2023-05-10T08:22:52;17.15;;;8.23;;
19944;SDS011;10134;50.952;6.930;2023-05-10T08:25:19;14.52;;;7.38;;
19944;SDS011;10134;50.952;6.930;2023-05-10T08:27:47;15.40;;;8.50;;
19944;SDS011;10134;50.952;6.930;2023-05-10T08:30:14;12.73;;;7.95;;
19944;SDS011;10134;50.952;6.930;2023-05-10T08:32:41;12.52;;;6.80;;
19944;SDS011;10134;50.952;6.930;2023-05-10T08:35:09;11.57;;;6.18;;
19944;SDS011;10134;50.952;6.930;2023-05-10T08:37:36;13.77;;;6.72;;
19944;SDS011;10134;50.952;6.930;2023-05-10T08:40:03;12.70;;;5.40;;
19944;SDS011;10134;50.952;6.930;2023-05-10T08:42:31;12.63;;;6.00;;
19944;SDS011;10134;50.952;6.930;2023-05-10T08:45:02;11.75;;;6.28;;
19944;SDS011;10134;50.952;6.930;2023-05-10T08:47:31;11.80;;;6.47;;
19944;SDS011;10134;50.952;6.930;2023-05-10T08:49:58;9.10;;;5.72;;
19944;SDS011;10134;50.952;6.930;2023-05-10T08:52:27;10.82;;;6.45;;
19944;SDS011;10134;50.952;6.930;2023-05-10T08:54:56;7.90;;;5.20;;
19944;SDS011;10134;50.952;6.930;2023-05-10T08:57:23;11.52;;;6.43;;
19944;SDS011;10134;50.952;6.930;2023-05-10T08:59:51;11.68;;;6.75;;
19944;SDS011;10134;50.952;6.930;2023-05-10T09:02:18;10.07;;;6.50;;
19944;SDS011;10134;50.952;6.930;2023-05-10T09:04:47;11.40;;;6.97;;
19944;SDS011;10134;50.952;6.930;2023-05-10T09:07:15;8.95;;;6.03;;
19944;SDS011;10134;50.952;6.930;2023-05-10T09:09:43;11.98;;;7.57;;
19944;SDS011;10134;50.952;6.930;2023-05-10T09:12:12;9.70;;;6.43;;
19944;SDS011;10134;50.952;6.930;2023-05-10T09:14:42;11.00;;;6.68;;
19944;SDS011;10134;50.952;6.930;2023-05-10T09:17:11;11.93;;;7.20;;
19944;SDS011;10134;50.952;6.930;2023-05-10T09:19:39;12.25;;;8.18;;
19944;SDS011;10134;50.952;6.930;2023-05-10T09:22:06;15.32;;;9.35;;
19944;SDS011;10134;50.952;6.930;2023-05-10T09:24:34;16.88;;;8.98;;
19944;SDS011;10134;50.952;6.930;2023-05-10T09:27:01;20.85;;;10.40;;
19944;SDS011;10134;50.952;6.930;2023-05-10T09:29:50;17.90;;;10.23;;
19944;SDS011;10134;50.952;6.930;2023-05-10T09:32:21;17.63;;;9.45;;
19944;SDS011;10134;50.952;6.930;2023-05-10T09:34:48;22.73;;;10.82;;
19944;SDS011;10134;50.952;6.930;2023-05-10T09:37:16;18.20;;;10.25;;
19944;SDS011;10134;50.952;6.930;2023-05-10T09:39:43;13.63;;;8.35;;
19944;SDS011;10134;50.952;6.930;2023-05-10T09:42:11;19.63;;;9.30;;
19944;SDS011;10134;50.952;6.930;2023-05-10T09:44:38;14.48;;;7.47;;
19944;SDS011;10134;50.952;6.930;2023-05-10T09:47:07;10.90;;;7.18;;
19944;SDS011;10134;50.952;6.930;2023-05-10T09:49:34;13.57;;;7.60;;
19944;SDS011;10134;50.952;6.930;2023-05-10T09:52:03;12.93;;;7.65;;
19944;SDS011;10134;50.952;6.930;2023-05-10T09:54:31;21.98;;;12.18;;
19944;SDS011;10134;50.952;6.930;2023-05-10T09:57:00;15.43;;;9.80;;
19944;SDS011;10134;50.952;6.930;2023-05-10T09:59:28;16.30;;;8.80;;
19944;SDS011;10134;50.952;6.930;2023-05-10T10:01:56;14.32;;;8.50;;
19944;SDS011;10134;50.952;6.930;2023-05-10T10:04:25;15.55;;;7.57;;
19944;SDS011;10134;50.952;6.930;2023-05-10T10:06:59;14.18;;;7.53;;
19944;SDS011;10134;50.952;6.930;2023-05-10T10:09:28;12.20;;;6.63;;
19944;SDS011;10134;50.952;6.930;2023-05-10T10:11:56;14.85;;;7.88;;
19944;SDS011;10134;50.952;6.930;2023-05-10T10:14:23;13.77;;;7.28;;
19944;SDS011;10134;50.952;6.930;2023-05-10T10:16:51;13.45;;;7.72;;
19944;SDS011;10134;50.952;6.930;2023-05-10T10:19:34;13.35;;;7.25;;
19944;SDS011;10134;50.952;6.930;2023-05-10T10:22:02;11.90;;;6.60;;
19944;SDS011;10134;50.952;6.930;2023-05-10T10:24:31;12.18;;;6.15;;
19944;SDS011;10134;50.952;6.930;2023-05-10T10:27:10;8.57;;;5.88;;
19944;SDS011;10134;50.952;6.930;2023-05-10T10:34:47;11.40;;;6.50;;
19944;SDS011;10134;50.952;6.930;2023-05-10T10:37:15;10.52;;;6.63;;
19944;SDS011;10134;50.952;6.930;2023-05-10T10:39:42;8.73;;;6.22;;
19944;SDS011;10134;50.952;6.930;2023-05-10T10:42:09;9.15;;;5.80;;
19944;SDS011;10134;50.952;6.930;2023-05-10T10:44:37;10.52;;;5.47;;
19944;SDS011;10134;50.952;6.930;2023-05-10T10:52:22;8.93;;;4.03;;
19944;SDS011;10134;50.952;6.930;2023-05-10T10:55:40;10.18;;;5.85;;
19944;SDS011;10134;50.952;6.930;2023-05-10T10:58:00;10.07;;;5.90;;
19944;SDS011;10134;50.952;6.930;2023-05-10T11:00:29;10.68;;;6.40;;
19944;SDS011;10134;50.952;6.930;2023-05-10T11:03:10;9.93;;;5.53;;
19944;SDS011;10134;50.952;6.930;2023-05-10T11:10:37;11.70;;;6.15;;
19944;SDS011;10134;50.952;6.930;2023-05-10T11:13:08;9.07;;;6.10;;
19944;SDS011;10134;50.952;6.930;2023-05-10T11:15:37;10.32;;;4.75;;
19944;SDS011;10134;50.952;6.930;2023-05-10T11:20:57;9.27;;;4.68;;
19944;SDS011;10134;50.952;6.930;2023-05-10T11:26:07;8.48;;;3.70;;
19944;SDS011;10134;50.952;6.930;2023-05-10T11:28:44;7.68;;;3.67;;
19944;SDS011;10134;50.952;6.930;2023-05-10T11:31:13;6.38;;;3.90;;
19944;SDS011;10134;50.952;6.930;2023-05-10T11:33:45;3.80;;;3.10;;
19944;SDS011;10134;50.952;6.930;2023-05-10T11:36:14;7.35;;;3.60;;
19944;SDS011;10134;50.952;6.930;2023-05-10T11:38:43;6.47;;;3.83;;
19944;SDS011;10134;50.952;6.930;2023-05-10T11:41:11;3.88;;;2.95;;
19944;SDS011;10134;50.952;6.930;2023-05-10T11:43:39;8.35;;;4.72;;
19944;SDS011;10134;50.952;6.930;2023-05-10T11:46:11;4.80;;;3.42;;
19944;SDS011;10134;50.952;6.930;2023-05-10T11:48:40;4.75;;;3.50;;
19944;SDS011;10134;50.952;6.930;2023-05-10T11:51:08;4.47;;;3.03;;
19944;SDS011;10134;50.952;6.930;2023-05-10T11:53:37;5.72;;;2.92;;
19944;SDS011;10134;50.952;6.930;2023-05-10T11:56:05;4.63;;;2.80;;
19944;SDS011;10134;50.952;6.930;2023-05-10T11:58:34;2.90;;;1.83;;
19944;SDS011;10134;50.952;6.930;2023-05-10T12:01:02;11.90;;;2.90;;
19944;SDS011;10134;50.952;6.930;2023-05-10T12:03:30;2.45;;;2.20;;
19944;SDS011;10134;50.952;6.930;2023-05-10T12:05:58;3.30;;;2.40;;
19944;SDS011;10134;50.952;6.930;2023-05-10T12:08:27;2.30;;;1.88;;
19944;SDS011;10134;50.952;6.930;2023-05-10T12:11:06;5.45;;;2.20;;
19944;SDS011;10134;50.952;6.930;2023-05-10T12:13:38;2.30;;;1.73;;
19944;SDS011;10134;50.952;6.930;2023-05-10T12:16:13;3.58;;;2.08;;
19944;SDS011;10134;50.952;6.930;2023-05-10T12:18:42;2.03;;;1.80;;
19944;SDS011;10134;50.952;6.930;2023-05-10T12:21:11;2.13;;;1.63;;
19944;SDS011;10134;50.952;6.930;2023-05-10T12:23:39;3.10;;;2.08;;
19944;SDS011;10134;50.952;6.930;2023-05-10T12:26:08;1.90;;;1.73;;
19944;SDS011;10134;50.952;6.930;2023-05-10T12:28:37;3.25;;;2.45;;
19944;SDS011;10134;50.952;6.930;2023-05-10T12:31:06;2.78;;;2.10;;
19944;SDS011;10134;50.952;6.930;2023-05-10T12:33:40;3.10;;;2.22;;
19944;SDS011;10134;50.952;6.930;2023-05-10T12:36:10;2.80;;;2.13;;
19944;SDS011;10134;50.952;6.930;2023-05-10T12:38:39;2.83;;;1.88;;
19944;SDS011;10134;50.952;6.930;2023-05-10T12:41:10;2.60;;;2.10;;
19944;SDS011;10134;50.952;6.930;2023-05-10T12:43:47;2.67;;;2.00;;
19944;SDS011;10134;50.952;6.930;2023-05-10T12:46:16;1.83;;;1.70;;
19944;SDS011;10134;50.952;6.930;2023-05-10T12:48:45;3.88;;;1.95;;
19944;SDS011;10134;50.952;6.930;2023-05-10T12:51:20;1.95;;;1.60;;
19944;SDS011;10134;50.952;6.930;2023-05-10T12:53:49;3.35;;;1.63;;
19944;SDS011;10134;50.952;6.930;2023-05-10T12:56:16;1.50;;;1.40;;
19944;SDS011;10134;50.952;6.930;2023-05-10T12:58:43;2.67;;;1.65;;
19944;SDS011;10134;50.952;6.930;2023-05-10T13:01:14;1.77;;;1.48;;
19944;SDS011;10134;50.952;6.930;2023-05-10T13:03:42;2.13;;;1.67;;
19944;SDS011;10134;50.952;6.930;2023-05-10T13:06:13;2.20;;;1.33;;
19944;SDS011;10134;50.952;6.930;2023-05-10T13:08:40;1.98;;;1.48;;
19944;SDS011;10134;50.952;6.930;2023-05-10T13:11:08;2.53;;;1.35;;
19944;SDS011;10134;50.952;6.930;2023-05-10T13:13:35;1.40;;;1.30;;
19944;SDS011;10134;50.952;6.930;2023-05-10T13:16:02;2.17;;;1.58;;
19944;SDS011;10134;50.952;6.930;2023-05-10T13:18:30;2.72;;;1.42;;
19944;SDS011;10134;50.952;6.930;2023-05-10T13:20:57;1.92;;;1.27;;
19944;SDS011;10134;50.952;6.930;2023-05-10T13:23:24;2.60;;;1.10;;
19944;SDS011;10134;50.952;6.930;2023-05-10T13:25:51;1.25;;;0.88;;
19944;SDS011;10134;50.952;6.930;2023-05-10T13:28:19;1.20;;;1.10;;
19944;SDS011;10134;50.952;6.930;2023-05-10T13:30:46;2.22;;;1.52;;
19944;SDS011;10134;50.952;6.930;2023-05-10T13:33:13;1.05;;;0.95;;
19944;SDS011;10134;50.952;6.930;2023-05-10T13:35:41;1.17;;;1.08;;
19944;SDS011;10134;50.952;6.930;2023-05-10T13:38:08;2.20;;;1.52;;
19944;SDS011;10134;50.952;6.930;2023-05-10T13:40:36;1.17;;;1.08;;
19944;SDS011;10134;50.952;6.930;2023-05-10T13:43:03;2.35;;;1.20;;
19944;SDS011;10134;50.952;6.930;2023-05-10T13:45:30;2.00;;;1.42;;
19944;SDS011;10134;50.952;6.930;2023-05-10T13:47:57;3.00;;;1.65;;
19944;SDS011;10134;50.952;6.930;2023-05-10T13:50:25;0.85;;;0.85;;
19944;SDS011;10134;50.952;6.930;2023-05-10T13:52:52;2.58;;;0.85;;
19944;SDS011;10134;50.952;6.930;2023-05-10T13:55:19;5.03;;;1.40;;
19944;SDS011;10134;50.952;6.930;2023-05-10T13:58:04;3.78;;;1.55;;
19944;SDS011;10134;50.952;6.930;2023-05-10T14:00:31;5.40;;;1.08;;
19944;SDS011;10134;50.952;6.930;2023-05-10T14:02:59;4.20;;;1.00;;
19944;SDS011;10134;50.952;6.930;2023-05-10T14:05:26;5.72;;;1.40;;
19944;SDS011;10134;50.952;6.930;2023-05-10T14:07:54;0.95;;;0.85;;
19944;SDS011;10134;50.952;6.930;2023-05-10T14:10:23;3.63;;;0.90;;
19944;SDS011;10134;50.952;6.930;2023-05-10T14:12:51;2.90;;;0.80;;
19944;SDS011;10134;50.952;6.930;2023-05-10T14:15:18;3.00;;;0.93;;
19944;SDS011;10134;50.952;6.930;2023-05-10T14:17:46;1.50;;;0.82;;
19944;SDS011;10134;50.952;6.930;2023-05-10T14:20:13;0.90;;;0.88;;
19944;SDS011;10134;50.952;6.930;2023-05-10T14:22:41;8.25;;;1.33;;
19944;SDS011;10134;50.952;6.930;2023-05-10T14:25:08;1.92;;;0.93;;
19944;SDS011;10134;50.952;6.930;2023-05-10T14:27:36;3.00;;;0.93;;
19944;SDS011;10134;50.952;6.930;2023-05-10T14:30:03;2.53;;;1.30;;
19944;SDS011;10134;50.952;6.930;2023-05-10T14:32:31;2.33;;;1.25;;
19944;SDS011;10134;50.952;6.930;2023-05-10T14:34:59;0.90;;;0.70;;
19944;SDS011;10134;50.952;6.930;2023-05-10T14:37:26;1.00;;;0.90;;
19944;SDS011;10134;50.952;6.930;2023-05-10T14:39:53;1.35;;;0.90;;
19944;SDS011;10134;50.952;6.930;2023-05-10T14:42:21;1.98;;;1.20;;
19944;SDS011;10134;50.952;6.930;2023-05-10T14:44:48;2.80;;;1.30;;
19944;SDS011;10134;50.952;6.930;2023-05-10T14:47:15;2.38;;;1.83;;
19944;SDS011;10134;50.952;6.930;2023-05-10T14:49:42;3.78;;;2.40;;
19944;SDS011;10134;50.952;6.930;2023-05-10T14:52:10;2.60;;;1.25;;
19944;SDS011;10134;50.952;6.930;2023-05-10T14:54:38;3.25;;;1.50;;
19944;SDS011;10134;50.952;6.930;2023-05-10T14:57:06;1.70;;;1.10;;
19944;SDS011;10134;50.952;6.930;2023-05-10T14:59:34;6.53;;;4.30;;
19944;SDS011;10134;50.952;6.930;2023-05-10T15:02:01;2.65;;;1.95;;
19944;SDS011;10134;50.952;6.930;2023-05-10T15:04:30;1.90;;;1.27;;
19944;SDS011;10134;50.952;6.930;2023-05-10T15:06:57;2.00;;;1.23;;
19944;SDS011;10134;50.952;6.930;2023-05-10T15:09:26;4.25;;;1.08;;
19944;SDS011;10134;50.952;6.930;2023-05-10T15:11:54;2.38;;;1.58;;
19944;SDS011;10134;50.952;6.930;2023-05-10T15:14:22;2.65;;;1.58;;
19944;SDS011;10134;50.952;6.930;2023-05-10T15:16:50;1.80;;;1.40;;
19944;SDS011;10134;50.952;6.930;2023-05-10T15:19:17;1.58;;;1.27;;
19944;SDS011;10134;50.952;6.930;2023-05-10T15:21:46;2.05;;;1.27;;
19944;SDS011;10134;50.952;6.930;2023-05-10T15:24:14;2.33;;;1.10;;
19944;SDS011;10134;50.952;6.930;2023-05-10T15:26:41;2.05;;;1.35;;
19944;SDS011;10134;50.952;6.930;2023-05-10T15:29:08;3.83;;;2.63;;
19944;SDS011;10134;50.952;6.930;2023-05-10T15:31:36;1.70;;;1.33;;